sensor_id;sensor_type;location;lat;lon;timestamp;P1;durP1;ratioP1;P2;durP2;ratioP2
4533;SDS011;2279;51.448;7.306;2023-05-07T00:01:16;8.73;;;6.87;;
4533;SDS011;2279;51.448;7.306;2023-05-07T00:03:42;9.17;;;7.27;;
4533;SDS011;2279;51.448;7.306;2023-05-07T00:06:09;7.00;;;6.30;;
4533;SDS011;2279;51.448;7.306;2023-05-07T00:08:37;10.10;;;7.80;;
4533;SDS011;2279;51.448;7.306;2023-05-07T00:11:03;12.93;;;9.10;;
4533;SDS011;2279;51.448;7.306;2023-05-07T00:13:30;13.20;;;10.00;;
4533;SDS011;2279;51.448;7.306;2023-05-07T00:16:01;9.83;;;8.50;;
4533;SDS011;2279;51.448;7.306;2023-05-07T00:18:27;10.20;;;8.17;;
4533;SDS011;2279;51.448;7.306;2023-05-07T00:20:53;9.90;;;8.47;;
4533;SDS011;2279;51.448;7.306;2023-05-07T00:23:19;8.27;;;7.23;;
4533;SDS011;2279;51.448;7.306;2023-05-07T00:25:45;9.20;;;7.80;;
4533;SDS011;2279;51.448;7.306;2023-05-07T00:28:11;8.57;;;7.20;;
4533;SDS011;2279;51.448;7.306;2023-05-07T00:30:37;9.77;;;8.00;;
4533;SDS011;2279;51.448;7.306;2023-05-07T00:33:03;9.63;;;7.67;;
4533;SDS011;2279;51.448;7.306;2023-05-07T00:35:29;8.47;;;7.67;;
4533;SDS011;2279;51.448;7.306;2023-05-07T00:37:55;10.00;;;8.60;;
4533;SDS011;2279;51.448;7.306;2023-05-07T00:40:21;16.93;;;9.30;;
4533;SDS011;2279;51.448;7.306;2023-05-07T00:42:47;10.33;;;8.90;;
4533;SDS011;2279;51.448;7.306;2023-05-07T00:45:14;10.97;;;8.57;;
4533;SDS011;2279;51.448;7.306;2023-05-07T00:47:40;11.30;;;8.67;;
4533;SDS011;2279;51.448;7.306;2023-05-07T00:50:06;11.03;;;8.57;;
4533;SDS011;2279;51.448;7.306;2023-05-07T00:52:32;11.57;;;10.10;;
4533;SDS011;2279;51.448;7.306;2023-05-07T00:54:59;10.07;;;8.77;;
4533;SDS011;2279;51.448;7.306;2023-05-07T00:57:28;10.63;;;9.13;;
4533;SDS011;2279;51.448;7.306;2023-05-07T00:59:57;9.13;;;7.67;;
4533;SDS011;2279;51.448;7.306;2023-05-07T01:02:23;17.00;;;11.20;;
4533;SDS011;2279;51.448;7.306;2023-05-07T01:04:49;15.10;;;9.90;;
4533;SDS011;2279;51.448;7.306;2023-05-07T01:07:15;12.47;;;10.97;;
4533;SDS011;2279;51.448;7.306;2023-05-07T01:09:41;11.00;;;9.80;;
4533;SDS011;2279;51.448;7.306;2023-05-07T01:12:07;15.47;;;11.10;;
4533;SDS011;2279;51.448;7.306;2023-05-07T01:14:34;11.03;;;9.23;;
4533;SDS011;2279;51.448;7.306;2023-05-07T01:17:00;13.63;;;9.37;;
4533;SDS011;2279;51.448;7.306;2023-05-07T01:19:26;13.37;;;11.30;;
4533;SDS011;2279;51.448;7.306;2023-05-07T01:21:55;12.27;;;9.73;;
4533;SDS011;2279;51.448;7.306;2023-05-07T01:24:28;15.17;;;9.50;;
4533;SDS011;2279;51.448;7.306;2023-05-07T01:26:56;14.57;;;11.37;;
4533;SDS011;2279;51.448;7.306;2023-05-07T01:29:22;12.27;;;9.83;;
4533;SDS011;2279;51.448;7.306;2023-05-07T01:31:50;14.17;;;10.43;;
4533;SDS011;2279;51.448;7.306;2023-05-07T01:34:18;12.50;;;9.10;;
4533;SDS011;2279;51.448;7.306;2023-05-07T01:36:46;11.17;;;9.53;;
4533;SDS011;2279;51.448;7.306;2023-05-07T01:39:13;12.10;;;9.57;;
4533;SDS011;2279;51.448;7.306;2023-05-07T01:41:42;10.20;;;9.20;;
4533;SDS011;2279;51.448;7.306;2023-05-07T01:44:09;11.50;;;9.30;;
4533;SDS011;2279;51.448;7.306;2023-05-07T01:46:36;13.53;;;10.17;;
4533;SDS011;2279;51.448;7.306;2023-05-07T01:49:03;12.60;;;10.07;;
4533;SDS011;2279;51.448;7.306;2023-05-07T01:51:31;16.93;;;10.00;;
4533;SDS011;2279;51.448;7.306;2023-05-07T01:53:57;13.83;;;10.57;;
4533;SDS011;2279;51.448;7.306;2023-05-07T01:56:23;14.47;;;10.63;;
4533;SDS011;2279;51.448;7.306;2023-05-07T01:58:51;11.63;;;10.33;;
4533;SDS011;2279;51.448;7.306;2023-05-07T02:01:17;13.20;;;10.17;;
4533;SDS011;2279;51.448;7.306;2023-05-07T02:03:43;11.90;;;9.80;;
4533;SDS011;2279;51.448;7.306;2023-05-07T02:06:10;10.83;;;9.53;;
4533;SDS011;2279;51.448;7.306;2023-05-07T02:08:37;10.83;;;8.90;;
4533;SDS011;2279;51.448;7.306;2023-05-07T02:11:03;10.40;;;9.30;;
4533;SDS011;2279;51.448;7.306;2023-05-07T02:13:31;10.77;;;9.67;;
4533;SDS011;2279;51.448;7.306;2023-05-07T02:15:58;11.93;;;10.73;;
4533;SDS011;2279;51.448;7.306;2023-05-07T02:18:25;12.30;;;10.23;;
4533;SDS011;2279;51.448;7.306;2023-05-07T02:20:51;13.67;;;10.63;;
4533;SDS011;2279;51.448;7.306;2023-05-07T02:23:17;11.70;;;9.87;;
4533;SDS011;2279;51.448;7.306;2023-05-07T02:25:43;15.40;;;11.33;;
4533;SDS011;2279;51.448;7.306;2023-05-07T02:28:10;11.67;;;9.17;;
4533;SDS011;2279;51.448;7.306;2023-05-07T02:30:36;13.37;;;10.53;;
4533;SDS011;2279;51.448;7.306;2023-05-07T02:33:02;12.97;;;10.47;;
4533;SDS011;2279;51.448;7.306;2023-05-07T02:35:28;14.57;;;11.93;;
4533;SDS011;2279;51.448;7.306;2023-05-07T02:37:54;11.97;;;10.40;;
4533;SDS011;2279;51.448;7.306;2023-05-07T02:40:20;13.60;;;11.60;;
4533;SDS011;2279;51.448;7.306;2023-05-07T02:42:48;14.53;;;11.00;;
4533;SDS011;2279;51.448;7.306;2023-05-07T02:45:14;14.50;;;11.10;;
4533;SDS011;2279;51.448;7.306;2023-05-07T02:47:40;14.23;;;10.77;;
4533;SDS011;2279;51.448;7.306;2023-05-07T02:50:06;15.90;;;10.80;;
4533;SDS011;2279;51.448;7.306;2023-05-07T02:52:33;17.83;;;11.93;;
4533;SDS011;2279;51.448;7.306;2023-05-07T02:54:59;14.13;;;10.90;;
4533;SDS011;2279;51.448;7.306;2023-05-07T02:57:25;13.93;;;10.23;;
4533;SDS011;2279;51.448;7.306;2023-05-07T02:59:54;14.43;;;11.07;;
4533;SDS011;2279;51.448;7.306;2023-05-07T03:02:20;14.47;;;11.67;;
4533;SDS011;2279;51.448;7.306;2023-05-07T03:04:46;15.03;;;10.97;;
4533;SDS011;2279;51.448;7.306;2023-05-07T03:07:12;12.27;;;11.03;;
4533;SDS011;2279;51.448;7.306;2023-05-07T03:09:39;17.87;;;11.70;;
4533;SDS011;2279;51.448;7.306;2023-05-07T03:12:05;13.60;;;11.07;;
4533;SDS011;2279;51.448;7.306;2023-05-07T03:14:31;12.83;;;10.87;;
4533;SDS011;2279;51.448;7.306;2023-05-07T03:16:57;15.07;;;11.50;;
4533;SDS011;2279;51.448;7.306;2023-05-07T03:19:23;16.57;;;10.80;;
4533;SDS011;2279;51.448;7.306;2023-05-07T03:21:52;14.50;;;10.90;;
4533;SDS011;2279;51.448;7.306;2023-05-07T03:24:18;10.60;;;9.50;;
4533;SDS011;2279;51.448;7.306;2023-05-07T03:26:44;13.17;;;11.13;;
4533;SDS011;2279;51.448;7.306;2023-05-07T03:29:10;12.90;;;10.37;;
4533;SDS011;2279;51.448;7.306;2023-05-07T03:31:36;12.10;;;10.10;;
4533;SDS011;2279;51.448;7.306;2023-05-07T03:34:04;14.30;;;10.03;;
4533;SDS011;2279;51.448;7.306;2023-05-07T03:36:33;13.00;;;10.20;;
4533;SDS011;2279;51.448;7.306;2023-05-07T03:38:59;13.90;;;10.13;;
4533;SDS011;2279;51.448;7.306;2023-05-07T03:41:25;19.80;;;11.50;;
4533;SDS011;2279;51.448;7.306;2023-05-07T03:43:52;13.90;;;11.20;;
4533;SDS011;2279;51.448;7.306;2023-05-07T03:46:18;15.50;;;10.90;;
4533;SDS011;2279;51.448;7.306;2023-05-07T03:48:45;13.33;;;10.23;;
4533;SDS011;2279;51.448;7.306;2023-05-07T03:51:13;14.03;;;11.57;;
4533;SDS011;2279;51.448;7.306;2023-05-07T03:53:38;18.77;;;12.67;;
4533;SDS011;2279;51.448;7.306;2023-05-07T03:56:06;19.07;;;13.73;;
4533;SDS011;2279;51.448;7.306;2023-05-07T03:58:32;17.57;;;14.73;;
4533;SDS011;2279;51.448;7.306;2023-05-07T04:01:00;20.90;;;15.50;;
4533;SDS011;2279;51.448;7.306;2023-05-07T04:03:27;22.30;;;17.20;;
4533;SDS011;2279;51.448;7.306;2023-05-07T04:05:53;24.90;;;16.57;;
4533;SDS011;2279;51.448;7.306;2023-05-07T04:08:19;22.13;;;16.80;;
4533;SDS011;2279;51.448;7.306;2023-05-07T04:10:45;24.73;;;17.03;;
4533;SDS011;2279;51.448;7.306;2023-05-07T04:13:11;20.67;;;15.80;;
4533;SDS011;2279;51.448;7.306;2023-05-07T04:15:40;21.03;;;16.90;;
4533;SDS011;2279;51.448;7.306;2023-05-07T04:18:06;23.27;;;17.40;;
4533;SDS011;2279;51.448;7.306;2023-05-07T04:20:33;20.37;;;17.23;;
4533;SDS011;2279;51.448;7.306;2023-05-07T04:23:01;25.33;;;19.10;;
4533;SDS011;2279;51.448;7.306;2023-05-07T04:25:27;21.03;;;16.47;;
4533;SDS011;2279;51.448;7.306;2023-05-07T04:27:53;21.50;;;17.47;;
4533;SDS011;2279;51.448;7.306;2023-05-07T04:30:19;21.17;;;17.17;;
4533;SDS011;2279;51.448;7.306;2023-05-07T04:32:45;19.90;;;16.27;;
4533;SDS011;2279;51.448;7.306;2023-05-07T04:35:12;22.23;;;16.40;;
4533;SDS011;2279;51.448;7.306;2023-05-07T04:37:42;20.17;;;16.10;;
4533;SDS011;2279;51.448;7.306;2023-05-07T04:40:08;22.50;;;17.00;;
4533;SDS011;2279;51.448;7.306;2023-05-07T04:42:35;27.40;;;18.77;;
4533;SDS011;2279;51.448;7.306;2023-05-07T04:45:02;22.63;;;17.70;;
4533;SDS011;2279;51.448;7.306;2023-05-07T04:47:31;19.83;;;15.37;;
4533;SDS011;2279;51.448;7.306;2023-05-07T04:49:57;18.53;;;15.33;;
4533;SDS011;2279;51.448;7.306;2023-05-07T04:52:23;19.77;;;16.23;;
4533;SDS011;2279;51.448;7.306;2023-05-07T04:54:52;18.27;;;15.60;;
4533;SDS011;2279;51.448;7.306;2023-05-07T04:57:18;17.83;;;14.73;;
4533;SDS011;2279;51.448;7.306;2023-05-07T04:59:45;17.37;;;13.53;;
4533;SDS011;2279;51.448;7.306;2023-05-07T05:02:11;14.97;;;12.47;;
4533;SDS011;2279;51.448;7.306;2023-05-07T05:04:37;16.77;;;12.97;;
4533;SDS011;2279;51.448;7.306;2023-05-07T05:07:03;15.90;;;12.73;;
4533;SDS011;2279;51.448;7.306;2023-05-07T05:09:32;14.50;;;12.63;;
4533;SDS011;2279;51.448;7.306;2023-05-07T05:11:59;16.10;;;11.93;;
4533;SDS011;2279;51.448;7.306;2023-05-07T05:14:25;15.73;;;12.17;;
4533;SDS011;2279;51.448;7.306;2023-05-07T05:16:51;15.13;;;12.60;;
4533;SDS011;2279;51.448;7.306;2023-05-07T05:19:17;14.73;;;11.13;;
4533;SDS011;2279;51.448;7.306;2023-05-07T05:21:44;13.17;;;11.70;;
4533;SDS011;2279;51.448;7.306;2023-05-07T05:24:10;14.03;;;11.90;;
4533;SDS011;2279;51.448;7.306;2023-05-07T05:26:39;15.20;;;11.20;;
4533;SDS011;2279;51.448;7.306;2023-05-07T05:29:08;12.67;;;9.93;;
4533;SDS011;2279;51.448;7.306;2023-05-07T05:31:34;11.13;;;10.03;;
4533;SDS011;2279;51.448;7.306;2023-05-07T05:34:01;13.50;;;10.53;;
4533;SDS011;2279;51.448;7.306;2023-05-07T05:36:28;11.73;;;10.10;;
4533;SDS011;2279;51.448;7.306;2023-05-07T05:38:55;11.53;;;9.30;;
4533;SDS011;2279;51.448;7.306;2023-05-07T05:41:21;15.03;;;10.63;;
4533;SDS011;2279;51.448;7.306;2023-05-07T05:43:48;10.33;;;9.30;;
4533;SDS011;2279;51.448;7.306;2023-05-07T05:46:15;10.20;;;8.87;;
4533;SDS011;2279;51.448;7.306;2023-05-07T05:48:41;12.17;;;9.60;;
4533;SDS011;2279;51.448;7.306;2023-05-07T05:51:07;14.00;;;9.83;;
4533;SDS011;2279;51.448;7.306;2023-05-07T05:53:33;12.67;;;9.60;;
4533;SDS011;2279;51.448;7.306;2023-05-07T05:55:59;9.80;;;8.70;;
4533;SDS011;2279;51.448;7.306;2023-05-07T05:58:28;9.67;;;8.67;;
4533;SDS011;2279;51.448;7.306;2023-05-07T06:00:55;10.70;;;8.20;;
4533;SDS011;2279;51.448;7.306;2023-05-07T06:03:22;7.67;;;6.97;;
4533;SDS011;2279;51.448;7.306;2023-05-07T06:08:46;7.23;;;6.50;;
4533;SDS011;2279;51.448;7.306;2023-05-07T06:11:12;9.10;;;6.57;;
4533;SDS011;2279;51.448;7.306;2023-05-07T06:13:38;6.63;;;5.90;;
4533;SDS011;2279;51.448;7.306;2023-05-07T06:16:04;8.23;;;7.23;;
4533;SDS011;2279;51.448;7.306;2023-05-07T06:18:30;6.27;;;5.67;;
4533;SDS011;2279;51.448;7.306;2023-05-07T06:20:56;11.17;;;7.17;;
4533;SDS011;2279;51.448;7.306;2023-05-07T06:23:22;9.93;;;6.10;;
4533;SDS011;2279;51.448;7.306;2023-05-07T06:25:48;6.37;;;5.77;;
4533;SDS011;2279;51.448;7.306;2023-05-07T06:28:15;8.90;;;6.70;;
4533;SDS011;2279;51.448;7.306;2023-05-07T06:30:41;9.97;;;6.23;;
4533;SDS011;2279;51.448;7.306;2023-05-07T06:33:07;6.73;;;6.03;;
4533;SDS011;2279;51.448;7.306;2023-05-07T06:35:33;8.77;;;6.10;;
4533;SDS011;2279;51.448;7.306;2023-05-07T06:37:59;8.00;;;6.50;;
4533;SDS011;2279;51.448;7.306;2023-05-07T06:40:25;6.13;;;5.30;;
4533;SDS011;2279;51.448;7.306;2023-05-07T06:42:51;6.23;;;5.60;;
4533;SDS011;2279;51.448;7.306;2023-05-07T06:45:17;5.57;;;5.07;;
4533;SDS011;2279;51.448;7.306;2023-05-07T06:47:43;10.07;;;6.20;;
4533;SDS011;2279;51.448;7.306;2023-05-07T06:50:09;8.10;;;6.63;;
4533;SDS011;2279;51.448;7.306;2023-05-07T06:52:35;8.90;;;7.00;;
4533;SDS011;2279;51.448;7.306;2023-05-07T06:55:01;10.50;;;6.40;;
4533;SDS011;2279;51.448;7.306;2023-05-07T06:57:27;6.03;;;4.73;;
4533;SDS011;2279;51.448;7.306;2023-05-07T06:59:53;5.60;;;4.90;;
4533;SDS011;2279;51.448;7.306;2023-05-07T07:02:19;6.07;;;4.97;;
4533;SDS011;2279;51.448;7.306;2023-05-07T07:04:45;6.33;;;5.37;;
4533;SDS011;2279;51.448;7.306;2023-05-07T07:07:11;5.73;;;4.13;;
4533;SDS011;2279;51.448;7.306;2023-05-07T07:09:37;7.93;;;5.47;;
4533;SDS011;2279;51.448;7.306;2023-05-07T07:12:03;5.57;;;5.00;;
4533;SDS011;2279;51.448;7.306;2023-05-07T07:14:29;6.53;;;4.77;;
4533;SDS011;2279;51.448;7.306;2023-05-07T07:16:55;7.00;;;5.33;;
4533;SDS011;2279;51.448;7.306;2023-05-07T07:19:21;5.80;;;5.27;;
4533;SDS011;2279;51.448;7.306;2023-05-07T07:21:47;10.00;;;4.40;;
4533;SDS011;2279;51.448;7.306;2023-05-07T07:24:13;6.10;;;5.03;;
4533;SDS011;2279;51.448;7.306;2023-05-07T07:26:44;6.20;;;5.50;;
4533;SDS011;2279;51.448;7.306;2023-05-07T07:29:10;6.30;;;5.57;;
4533;SDS011;2279;51.448;7.306;2023-05-07T07:31:36;5.93;;;4.40;;
4533;SDS011;2279;51.448;7.306;2023-05-07T07:34:02;5.50;;;4.90;;
4533;SDS011;2279;51.448;7.306;2023-05-07T07:36:27;7.27;;;4.80;;
4533;SDS011;2279;51.448;7.306;2023-05-07T07:38:53;7.00;;;4.60;;
4533;SDS011;2279;51.448;7.306;2023-05-07T07:41:19;5.60;;;4.67;;
4533;SDS011;2279;51.448;7.306;2023-05-07T07:43:46;5.23;;;4.47;;
4533;SDS011;2279;51.448;7.306;2023-05-07T07:46:12;5.43;;;4.07;;
4533;SDS011;2279;51.448;7.306;2023-05-07T07:48:38;5.30;;;4.80;;
4533;SDS011;2279;51.448;7.306;2023-05-07T07:51:04;6.43;;;4.80;;
4533;SDS011;2279;51.448;7.306;2023-05-07T07:53:30;4.50;;;4.10;;
4533;SDS011;2279;51.448;7.306;2023-05-07T07:55:56;6.27;;;4.67;;
4533;SDS011;2279;51.448;7.306;2023-05-07T07:58:22;5.07;;;3.97;;
4533;SDS011;2279;51.448;7.306;2023-05-07T08:00:49;5.00;;;3.97;;
4533;SDS011;2279;51.448;7.306;2023-05-07T08:03:16;5.77;;;4.67;;
4533;SDS011;2279;51.448;7.306;2023-05-07T08:05:42;5.40;;;4.87;;
4533;SDS011;2279;51.448;7.306;2023-05-07T08:08:08;4.73;;;4.10;;
4533;SDS011;2279;51.448;7.306;2023-05-07T08:10:34;4.67;;;4.17;;
4533;SDS011;2279;51.448;7.306;2023-05-07T08:13:03;6.20;;;4.43;;
4533;SDS011;2279;51.448;7.306;2023-05-07T08:15:29;4.10;;;3.67;;
4533;SDS011;2279;51.448;7.306;2023-05-07T08:17:55;5.40;;;4.50;;
4533;SDS011;2279;51.448;7.306;2023-05-07T08:20:22;4.43;;;4.03;;
4533;SDS011;2279;51.448;7.306;2023-05-07T08:22:48;5.03;;;4.53;;
4533;SDS011;2279;51.448;7.306;2023-05-07T08:25:14;4.80;;;4.30;;
4533;SDS011;2279;51.448;7.306;2023-05-07T08:27:40;7.50;;;4.87;;
4533;SDS011;2279;51.448;7.306;2023-05-07T08:30:06;6.40;;;4.27;;
4533;SDS011;2279;51.448;7.306;2023-05-07T08:32:32;6.47;;;5.57;;
4533;SDS011;2279;51.448;7.306;2023-05-07T08:34:59;5.40;;;4.43;;
4533;SDS011;2279;51.448;7.306;2023-05-07T08:37:25;5.93;;;4.30;;
4533;SDS011;2279;51.448;7.306;2023-05-07T08:39:51;11.73;;;5.03;;
4533;SDS011;2279;51.448;7.306;2023-05-07T08:42:17;7.47;;;6.23;;
4533;SDS011;2279;51.448;7.306;2023-05-07T08:44:45;6.40;;;4.83;;
4533;SDS011;2279;51.448;7.306;2023-05-07T08:47:14;6.73;;;4.90;;
4533;SDS011;2279;51.448;7.306;2023-05-07T08:49:40;6.03;;;4.40;;
4533;SDS011;2279;51.448;7.306;2023-05-07T08:52:06;6.03;;;4.20;;
4533;SDS011;2279;51.448;7.306;2023-05-07T08:54:32;4.53;;;4.13;;
4533;SDS011;2279;51.448;7.306;2023-05-07T08:56:59;5.40;;;3.73;;
4533;SDS011;2279;51.448;7.306;2023-05-07T08:59:25;9.27;;;4.43;;
4533;SDS011;2279;51.448;7.306;2023-05-07T09:01:51;4.57;;;4.17;;
4533;SDS011;2279;51.448;7.306;2023-05-07T09:04:17;5.63;;;4.83;;
4533;SDS011;2279;51.448;7.306;2023-05-07T09:06:43;5.47;;;4.73;;
4533;SDS011;2279;51.448;7.306;2023-05-07T09:09:09;5.63;;;3.80;;
4533;SDS011;2279;51.448;7.306;2023-05-07T09:11:39;7.40;;;4.37;;
4533;SDS011;2279;51.448;7.306;2023-05-07T09:14:05;5.97;;;5.17;;
4533;SDS011;2279;51.448;7.306;2023-05-07T09:16:31;6.00;;;3.90;;
4533;SDS011;2279;51.448;7.306;2023-05-07T09:18:58;6.50;;;5.87;;
4533;SDS011;2279;51.448;7.306;2023-05-07T09:21:25;5.83;;;4.80;;
4533;SDS011;2279;51.448;7.306;2023-05-07T09:23:52;9.80;;;5.13;;
4533;SDS011;2279;51.448;7.306;2023-05-07T09:26:22;5.07;;;4.50;;
4533;SDS011;2279;51.448;7.306;2023-05-07T09:28:49;5.00;;;4.50;;
4533;SDS011;2279;51.448;7.306;2023-05-07T09:31:15;8.07;;;6.00;;
4533;SDS011;2279;51.448;7.306;2023-05-07T09:33:41;4.20;;;3.53;;
4533;SDS011;2279;51.448;7.306;2023-05-07T09:36:07;5.37;;;4.40;;
4533;SDS011;2279;51.448;7.306;2023-05-07T09:38:34;6.30;;;4.67;;
4533;SDS011;2279;51.448;7.306;2023-05-07T09:41:08;11.43;;;4.60;;
4533;SDS011;2279;51.448;7.306;2023-05-07T09:43:34;4.40;;;3.97;;
4533;SDS011;2279;51.448;7.306;2023-05-07T09:46:02;5.50;;;3.77;;
4533;SDS011;2279;51.448;7.306;2023-05-07T09:48:28;6.20;;;5.50;;
4533;SDS011;2279;51.448;7.306;2023-05-07T09:50:55;5.33;;;4.53;;
4533;SDS011;2279;51.448;7.306;2023-05-07T09:53:25;7.23;;;6.30;;
4533;SDS011;2279;51.448;7.306;2023-05-07T09:55:51;6.67;;;5.80;;
4533;SDS011;2279;51.448;7.306;2023-05-07T09:58:18;5.40;;;4.90;;
4533;SDS011;2279;51.448;7.306;2023-05-07T10:00:44;9.30;;;5.23;;
4533;SDS011;2279;51.448;7.306;2023-05-07T10:03:11;5.43;;;3.97;;
4533;SDS011;2279;51.448;7.306;2023-05-07T10:05:39;6.90;;;6.13;;
4533;SDS011;2279;51.448;7.306;2023-05-07T10:08:05;8.83;;;6.13;;
4533;SDS011;2279;51.448;7.306;2023-05-07T10:10:32;8.93;;;6.20;;
4533;SDS011;2279;51.448;7.306;2023-05-07T10:12:58;7.67;;;5.93;;
4533;SDS011;2279;51.448;7.306;2023-05-07T10:15:25;6.40;;;5.80;;
4533;SDS011;2279;51.448;7.306;2023-05-07T10:17:51;9.00;;;5.03;;
4533;SDS011;2279;51.448;7.306;2023-05-07T10:20:17;5.83;;;5.27;;
4533;SDS011;2279;51.448;7.306;2023-05-07T10:22:44;4.53;;;4.13;;
4533;SDS011;2279;51.448;7.306;2023-05-07T10:25:18;6.70;;;6.00;;
4533;SDS011;2279;51.448;7.306;2023-05-07T10:27:45;6.27;;;5.67;;
4533;SDS011;2279;51.448;7.306;2023-05-07T10:30:15;5.70;;;5.10;;
4533;SDS011;2279;51.448;7.306;2023-05-07T10:32:51;4.63;;;4.23;;
4533;SDS011;2279;51.448;7.306;2023-05-07T10:35:26;6.17;;;5.47;;
4533;SDS011;2279;51.448;7.306;2023-05-07T10:37:55;6.00;;;4.47;;
4533;SDS011;2279;51.448;7.306;2023-05-07T10:40:21;9.60;;;4.40;;
4533;SDS011;2279;51.448;7.306;2023-05-07T10:42:56;6.93;;;5.00;;
4533;SDS011;2279;51.448;7.306;2023-05-07T10:45:24;8.83;;;5.33;;
4533;SDS011;2279;51.448;7.306;2023-05-07T10:50:31;5.27;;;4.73;;
4533;SDS011;2279;51.448;7.306;2023-05-07T10:53:39;7.80;;;6.73;;
4533;SDS011;2279;51.448;7.306;2023-05-07T10:55:50;5.50;;;3.70;;
4533;SDS011;2279;51.448;7.306;2023-05-07T11:00:56;8.87;;;4.67;;
4533;SDS011;2279;51.448;7.306;2023-05-07T11:03:22;4.90;;;4.20;;
4533;SDS011;2279;51.448;7.306;2023-05-07T11:05:55;5.37;;;4.63;;
4533;SDS011;2279;51.448;7.306;2023-05-07T11:11:18;4.60;;;4.10;;
4533;SDS011;2279;51.448;7.306;2023-05-07T11:13:47;5.60;;;4.20;;
4533;SDS011;2279;51.448;7.306;2023-05-07T11:21:20;8.03;;;5.20;;
4533;SDS011;2279;51.448;7.306;2023-05-07T11:23:57;4.83;;;4.10;;
4533;SDS011;2279;51.448;7.306;2023-05-07T11:26:23;8.03;;;5.17;;
4533;SDS011;2279;51.448;7.306;2023-05-07T11:28:50;5.17;;;4.67;;
4533;SDS011;2279;51.448;7.306;2023-05-07T11:31:20;9.37;;;5.07;;
4533;SDS011;2279;51.448;7.306;2023-05-07T11:33:46;6.00;;;5.13;;
4533;SDS011;2279;51.448;7.306;2023-05-07T11:36:12;5.80;;;4.83;;
4533;SDS011;2279;51.448;7.306;2023-05-07T11:38:38;6.07;;;5.33;;
4533;SDS011;2279;51.448;7.306;2023-05-07T11:41:04;14.33;;;9.70;;
4533;SDS011;2279;51.448;7.306;2023-05-07T11:43:31;6.00;;;5.33;;
4533;SDS011;2279;51.448;7.306;2023-05-07T11:46:07;5.83;;;5.10;;
4533;SDS011;2279;51.448;7.306;2023-05-07T11:48:34;8.23;;;7.23;;
4533;SDS011;2279;51.448;7.306;2023-05-07T11:51:01;6.20;;;5.37;;
4533;SDS011;2279;51.448;7.306;2023-05-07T11:53:27;7.70;;;6.13;;
4533;SDS011;2279;51.448;7.306;2023-05-07T11:55:57;8.10;;;5.90;;
4533;SDS011;2279;51.448;7.306;2023-05-07T11:58:23;6.87;;;5.63;;
4533;SDS011;2279;51.448;7.306;2023-05-07T12:00:50;8.27;;;5.83;;
4533;SDS011;2279;51.448;7.306;2023-05-07T12:03:16;9.00;;;6.63;;
4533;SDS011;2279;51.448;7.306;2023-05-07T12:05:45;6.60;;;5.60;;
4533;SDS011;2279;51.448;7.306;2023-05-07T12:08:15;7.73;;;6.00;;
4533;SDS011;2279;51.448;7.306;2023-05-07T12:10:41;9.93;;;6.63;;
4533;SDS011;2279;51.448;7.306;2023-05-07T12:13:17;8.07;;;6.47;;
4533;SDS011;2279;51.448;7.306;2023-05-07T12:15:43;8.43;;;7.10;;
4533;SDS011;2279;51.448;7.306;2023-05-07T12:18:09;6.90;;;5.93;;
4533;SDS011;2279;51.448;7.306;2023-05-07T12:20:35;6.33;;;5.53;;
4533;SDS011;2279;51.448;7.306;2023-05-07T12:23:02;13.73;;;6.53;;
4533;SDS011;2279;51.448;7.306;2023-05-07T12:25:34;5.63;;;4.77;;
4533;SDS011;2279;51.448;7.306;2023-05-07T12:28:04;7.63;;;6.47;;
4533;SDS011;2279;51.448;7.306;2023-05-07T12:30:36;9.60;;;6.03;;
4533;SDS011;2279;51.448;7.306;2023-05-07T12:33:02;6.63;;;5.33;;
4533;SDS011;2279;51.448;7.306;2023-05-07T12:35:32;10.27;;;5.00;;
4533;SDS011;2279;51.448;7.306;2023-05-07T12:37:58;6.53;;;5.43;;
4533;SDS011;2279;51.448;7.306;2023-05-07T12:40:38;7.73;;;6.03;;
4533;SDS011;2279;51.448;7.306;2023-05-07T12:43:04;5.53;;;5.00;;
4533;SDS011;2279;51.448;7.306;2023-05-07T12:45:30;5.73;;;4.80;;
4533;SDS011;2279;51.448;7.306;2023-05-07T12:48:00;7.57;;;5.70;;
4533;SDS011;2279;51.448;7.306;2023-05-07T12:50:30;9.83;;;7.10;;
4533;SDS011;2279;51.448;7.306;2023-05-07T12:52:57;10.23;;;7.20;;
4533;SDS011;2279;51.448;7.306;2023-05-07T12:55:23;8.70;;;6.30;;
4533;SDS011;2279;51.448;7.306;2023-05-07T12:57:49;7.73;;;6.53;;
4533;SDS011;2279;51.448;7.306;2023-05-07T13:00:16;5.93;;;5.33;;
4533;SDS011;2279;51.448;7.306;2023-05-07T13:02:42;8.03;;;6.40;;
4533;SDS011;2279;51.448;7.306;2023-05-07T13:05:09;9.47;;;7.10;;
4533;SDS011;2279;51.448;7.306;2023-05-07T13:07:35;7.37;;;5.90;;
4533;SDS011;2279;51.448;7.306;2023-05-07T13:10:02;7.97;;;7.20;;
4533;SDS011;2279;51.448;7.306;2023-05-07T13:12:28;10.80;;;8.40;;
4533;SDS011;2279;51.448;7.306;2023-05-07T13:14:54;9.43;;;6.97;;
4533;SDS011;2279;51.448;7.306;2023-05-07T13:17:20;10.73;;;6.33;;
4533;SDS011;2279;51.448;7.306;2023-05-07T13:19:46;10.37;;;7.43;;
4533;SDS011;2279;51.448;7.306;2023-05-07T13:22:12;9.30;;;7.27;;
4533;SDS011;2279;51.448;7.306;2023-05-07T13:24:38;8.10;;;7.23;;
4533;SDS011;2279;51.448;7.306;2023-05-07T13:27:06;9.37;;;7.30;;
4533;SDS011;2279;51.448;7.306;2023-05-07T13:29:32;8.03;;;7.20;;
4533;SDS011;2279;51.448;7.306;2023-05-07T13:31:58;6.97;;;5.80;;
4533;SDS011;2279;51.448;7.306;2023-05-07T13:34:25;6.93;;;6.23;;
4533;SDS011;2279;51.448;7.306;2023-05-07T13:36:51;7.33;;;6.03;;
4533;SDS011;2279;51.448;7.306;2023-05-07T13:39:17;6.23;;;5.57;;
4533;SDS011;2279;51.448;7.306;2023-05-07T13:41:43;6.57;;;5.33;;
4533;SDS011;2279;51.448;7.306;2023-05-07T13:44:09;6.37;;;5.17;;
4533;SDS011;2279;51.448;7.306;2023-05-07T13:46:34;7.27;;;6.40;;
4533;SDS011;2279;51.448;7.306;2023-05-07T13:49:01;8.67;;;6.60;;
4533;SDS011;2279;51.448;7.306;2023-05-07T13:51:26;9.93;;;6.20;;
4533;SDS011;2279;51.448;7.306;2023-05-07T13:53:52;7.13;;;6.07;;
4533;SDS011;2279;51.448;7.306;2023-05-07T13:56:19;7.20;;;6.40;;
4533;SDS011;2279;51.448;7.306;2023-05-07T13:58:46;7.43;;;6.10;;
4533;SDS011;2279;51.448;7.306;2023-05-07T14:01:12;9.47;;;6.87;;
4533;SDS011;2279;51.448;7.306;2023-05-07T14:03:37;7.83;;;7.03;;
4533;SDS011;2279;51.448;7.306;2023-05-07T14:06:04;8.70;;;6.37;;
4533;SDS011;2279;51.448;7.306;2023-05-07T14:08:30;8.27;;;6.53;;
4533;SDS011;2279;51.448;7.306;2023-05-07T14:10:56;10.67;;;7.30;;
4533;SDS011;2279;51.448;7.306;2023-05-07T14:13:22;7.27;;;6.57;;
4533;SDS011;2279;51.448;7.306;2023-05-07T14:15:48;6.67;;;5.97;;
4533;SDS011;2279;51.448;7.306;2023-05-07T14:18:15;7.00;;;6.30;;
4533;SDS011;2279;51.448;7.306;2023-05-07T14:20:41;8.83;;;6.63;;
4533;SDS011;2279;51.448;7.306;2023-05-07T14:23:08;7.70;;;6.43;;
4533;SDS011;2279;51.448;7.306;2023-05-07T14:25:35;8.60;;;7.40;;
4533;SDS011;2279;51.448;7.306;2023-05-07T14:28:01;8.17;;;6.50;;
4533;SDS011;2279;51.448;7.306;2023-05-07T14:30:27;8.03;;;7.23;;
4533;SDS011;2279;51.448;7.306;2023-05-07T14:32:53;14.53;;;7.40;;
4533;SDS011;2279;51.448;7.306;2023-05-07T14:35:19;7.77;;;6.97;;
4533;SDS011;2279;51.448;7.306;2023-05-07T14:37:45;9.27;;;8.23;;
4533;SDS011;2279;51.448;7.306;2023-05-07T14:40:11;11.50;;;9.17;;
4533;SDS011;2279;51.448;7.306;2023-05-07T14:42:38;13.00;;;9.10;;
4533;SDS011;2279;51.448;7.306;2023-05-07T14:45:04;9.67;;;7.90;;
4533;SDS011;2279;51.448;7.306;2023-05-07T14:47:30;11.37;;;8.30;;
4533;SDS011;2279;51.448;7.306;2023-05-07T14:49:56;9.70;;;8.70;;
4533;SDS011;2279;51.448;7.306;2023-05-07T14:52:23;11.90;;;9.50;;
4533;SDS011;2279;51.448;7.306;2023-05-07T14:54:49;10.40;;;8.13;;
4533;SDS011;2279;51.448;7.306;2023-05-07T14:57:15;11.13;;;8.77;;
4533;SDS011;2279;51.448;7.306;2023-05-07T14:59:43;9.53;;;8.47;;
4533;SDS011;2279;51.448;7.306;2023-05-07T15:02:09;13.43;;;8.60;;
4533;SDS011;2279;51.448;7.306;2023-05-07T15:04:36;8.93;;;7.60;;
4533;SDS011;2279;51.448;7.306;2023-05-07T15:07:03;9.53;;;8.60;;
4533;SDS011;2279;51.448;7.306;2023-05-07T15:09:29;9.83;;;8.80;;
4533;SDS011;2279;51.448;7.306;2023-05-07T15:11:55;8.73;;;7.83;;
4533;SDS011;2279;51.448;7.306;2023-05-07T15:14:21;8.10;;;7.30;;
4533;SDS011;2279;51.448;7.306;2023-05-07T15:16:50;10.17;;;7.60;;
4533;SDS011;2279;51.448;7.306;2023-05-07T15:19:16;8.60;;;7.13;;